sensor_id;sensor_type;location;lat;lon;timestamp;pressure;altitude;pressure_sealevel;temperature;humidity
12195;BME280;27023;42.680;23.132;2022-11-11T00:00:14;93256.78;;;8.44;100.00
12195;BME280;27023;42.680;23.132;2022-11-11T00:02:41;93248.50;;;8.59;100.00
12195;BME280;27023;42.680;23.132;2022-11-11T00:05:07;93250.31;;;8.50;100.00
12195;BME280;27023;42.680;23.132;2022-11-11T00:07:35;93244.81;;;8.69;100.00
12195;BME280;27023;42.680;23.132;2022-11-11T00:10:03;93242.44;;;9.07;100.00
12195;BME280;27023;42.680;23.132;2022-11-11T00:12:30;93249.25;;;9.08;100.00
12195;BME280;27023;42.680;23.132;2022-11-11T00:14:56;93243.06;;;9.04;100.00
12195;BME280;27023;42.680;23.132;2022-11-11T00:17:23;93255.63;;;9.50;100.00
12195;BME280;27023;42.680;23.132;2022-11-11T00:20:08;93256.09;;;9.44;100.00
12195;BME280;27023;42.680;23.132;2022-11-11T00:22:59;93258.88;;;9.65;100.00
12195;BME280;27023;42.680;23.132;2022-11-11T00:25:44;93261.97;;;9.41;100.00
12195;BME280;27023;42.680;23.132;2022-11-11T00:28:10;93266.91;;;9.25;100.00
12195;BME280;27023;42.680;23.132;2022-11-11T00:30:37;93266.88;;;8.99;100.00
12195;BME280;27023;42.680;23.132;2022-11-11T00:33:04;93260.59;;;8.78;100.00
12195;BME280;27023;42.680;23.132;2022-11-11T00:35:30;93262.38;;;9.00;100.00
12195;BME280;27023;42.680;23.132;2022-11-11T00:38:16;93257.47;;;9.24;100.00
12195;BME280;27023;42.680;23.132;2022-11-11T00:40:56;93255.56;;;8.99;100.00
12195;BME280;27023;42.680;23.132;2022-11-11T00:43:23;93257.91;;;9.00;100.00
12195;BME280;27023;42.680;23.132;2022-11-11T00:45:50;93252.19;;;9.15;100.00
12195;BME280;27023;42.680;23.132;2022-11-11T00:48:16;93255.47;;;9.47;100.00
12195;BME280;27023;42.680;23.132;2022-11-11T00:51:00;93255.94;;;9.49;100.00
12195;BME280;27023;42.680;23.132;2022-11-11T00:53:30;93254.22;;;9.53;100.00
12195;BME280;27023;42.680;23.132;2022-11-11T00:55:59;93249.44;;;9.38;100.00
12195;BME280;27023;42.680;23.132;2022-11-11T00:58:26;93240.16;;;9.66;100.00
12195;BME280;27023;42.680;23.132;2022-11-11T01:00:53;93253.00;;;9.76;100.00
12195;BME280;27023;42.680;23.132;2022-11-11T01:03:20;93243.06;;;9.91;100.00
12195;BME280;27023;42.680;23.132;2022-11-11T01:05:47;93251.31;;;9.72;100.00
12195;BME280;27023;42.680;23.132;2022-11-11T01:08:14;93248.50;;;9.77;100.00
12195;BME280;27023;42.680;23.132;2022-11-11T01:10:42;93247.09;;;9.62;100.00
12195;BME280;27023;42.680;23.132;2022-11-11T01:13:16;93254.69;;;9.46;100.00
12195;BME280;27023;42.680;23.132;2022-11-11T01:15:46;93250.53;;;9.71;100.00
12195;BME280;27023;42.680;23.132;2022-11-11T01:18:15;93240.75;;;9.80;100.00
12195;BME280;27023;42.680;23.132;2022-11-11T01:20:42;93249.91;;;9.74;100.00
12195;BME280;27023;42.680;23.132;2022-11-11T01:23:10;93245.88;;;9.68;100.00
12195;BME280;27023;42.680;23.132;2022-11-11T01:25:39;93249.91;;;9.74;100.00
12195;BME280;27023;42.680;23.132;2022-11-11T01:28:08;93245.09;;;9.50;100.00
12195;BME280;27023;42.680;23.132;2022-11-11T01:30:35;93248.47;;;9.08;100.00
12195;BME280;27023;42.680;23.132;2022-11-11T01:33:02;93243.38;;;9.46;100.00
12195;BME280;27023;42.680;23.132;2022-11-11T01:35:29;93243.00;;;8.87;100.00
12195;BME280;27023;42.680;23.132;2022-11-11T01:37:57;93238.19;;;8.72;100.00
12195;BME280;27023;42.680;23.132;2022-11-11T01:40:24;93250.94;;;8.47;100.00
12195;BME280;27023;42.680;23.132;2022-11-11T01:42:52;93250.06;;;8.29;100.00
12195;BME280;27023;42.680;23.132;2022-11-11T01:45:45;93255.13;;;8.26;100.00
12195;BME280;27023;42.680;23.132;2022-11-11T01:48:13;93255.75;;;8.23;100.00
12195;BME280;27023;42.680;23.132;2022-11-11T01:51:01;93245.47;;;8.13;100.00
12195;BME280;27023;42.680;23.132;2022-11-11T01:53:29;93253.47;;;8.08;100.00
12195;BME280;27023;42.680;23.132;2022-11-11T01:55:56;93251.53;;;8.44;100.00
12195;BME280;27023;42.680;23.132;2022-11-11T01:58:24;93258.94;;;8.42;100.00
12195;BME280;27023;42.680;23.132;2022-11-11T02:00:52;93256.31;;;8.42;100.00
12195;BME280;27023;42.680;23.132;2022-11-11T02:03:20;93253.47;;;8.30;100.00
12195;BME280;27023;42.680;23.132;2022-11-11T02:05:49;93262.38;;;8.51;100.00
12195;BME280;27023;42.680;23.132;2022-11-11T02:08:21;93265.75;;;8.91;100.00
12195;BME280;27023;42.680;23.132;2022-11-11T02:10:58;93267.38;;;9.18;100.00
12195;BME280;27023;42.680;23.132;2022-11-11T02:13:26;93265.19;;;9.20;100.00
12195;BME280;27023;42.680;23.132;2022-11-11T02:16:11;93265.22;;;9.38;100.00
12195;BME280;27023;42.680;23.132;2022-11-11T02:18:39;93265.19;;;9.20;100.00
12195;BME280;27023;42.680;23.132;2022-11-11T02:21:07;93264.47;;;8.72;100.00
12195;BME280;27023;42.680;23.132;2022-11-11T02:23:38;93260.63;;;8.38;100.00
12195;BME280;27023;42.680;23.132;2022-11-11T02:26:12;93253.19;;;8.80;100.00
12195;BME280;27023;42.680;23.132;2022-11-11T02:28:41;93252.88;;;8.81;100.00
12195;BME280;27023;42.680;23.132;2022-11-11T02:31:08;93257.91;;;8.52;100.00
12195;BME280;27023;42.680;23.132;2022-11-11T02:33:35;93259.13;;;8.94;100.00
12195;BME280;27023;42.680;23.132;2022-11-11T02:36:02;93253.03;;;8.76;100.00
12195;BME280;27023;42.680;23.132;2022-11-11T02:38:30;93247.09;;;9.10;100.00
12195;BME280;27023;42.680;23.132;2022-11-11T02:40:57;93250.63;;;8.97;100.00
12195;BME280;27023;42.680;23.132;2022-11-11T02:43:42;93253.69;;;8.90;100.00
12195;BME280;27023;42.680;23.132;2022-11-11T02:46:09;93253.91;;;9.11;100.00
12195;BME280;27023;42.680;23.132;2022-11-11T02:48:35;93263.34;;;9.38;100.00
12195;BME280;27023;42.680;23.132;2022-11-11T02:51:02;93262.56;;;9.03;100.00
12195;BME280;27023;42.680;23.132;2022-11-11T02:53:31;93261.81;;;9.37;100.00
12195;BME280;27023;42.680;23.132;2022-11-11T02:55:57;93263.06;;;9.57;100.00
12195;BME280;27023;42.680;23.132;2022-11-11T02:58:24;93256.41;;;9.85;100.00
12195;BME280;27023;42.680;23.132;2022-11-11T03:00:52;93265.81;;;10.04;100.00
12195;BME280;27023;42.680;23.132;2022-11-11T03:03:19;93274.22;;;9.71;100.00
12195;BME280;27023;42.680;23.132;2022-11-11T03:05:45;93268.44;;;10.04;100.00
12195;BME280;27023;42.680;23.132;2022-11-11T03:08:12;93265.53;;;9.79;100.00
12195;BME280;27023;42.680;23.132;2022-11-11T03:10:39;93265.47;;;10.14;100.00
12195;BME280;27023;42.680;23.132;2022-11-11T03:13:05;93271.66;;;10.35;100.00
12195;BME280;27023;42.680;23.132;2022-11-11T03:15:32;93269.91;;;10.57;100.00
12195;BME280;27023;42.680;23.132;2022-11-11T03:18:00;93272.03;;;10.63;100.00
12195;BME280;27023;42.680;23.132;2022-11-11T03:20:26;93271.53;;;10.23;100.00
12195;BME280;27023;42.680;23.132;2022-11-11T03:23:12;93272.75;;;10.34;100.00
12195;BME280;27023;42.680;23.132;2022-11-11T03:25:41;93275.75;;;10.71;100.00
12195;BME280;27023;42.680;23.132;2022-11-11T03:28:09;93270.19;;;10.93;100.00
12195;BME280;27023;42.680;23.132;2022-11-11T03:30:37;93270.16;;;10.72;100.00
12195;BME280;27023;42.680;23.132;2022-11-11T03:33:05;93268.84;;;10.87;100.00
12195;BME280;27023;42.680;23.132;2022-11-11T03:35:33;93262.47;;;10.88;100.00
12195;BME280;27023;42.680;23.132;2022-11-11T03:38:00;93272.56;;;10.86;100.00
12195;BME280;27023;42.680;23.132;2022-11-11T03:40:44;93271.94;;;10.89;100.00
12195;BME280;27023;42.680;23.132;2022-11-11T03:43:12;93268.84;;;10.87;100.00
12195;BME280;27023;42.680;23.132;2022-11-11T03:45:39;93275.25;;;10.77;100.00
12195;BME280;27023;42.680;23.132;2022-11-11T03:48:07;93275.41;;;10.17;100.00
12195;BME280;27023;42.680;23.132;2022-11-11T03:50:34;93273.84;;;10.25;100.00
12195;BME280;27023;42.680;23.132;2022-11-11T03:53:01;93271.78;;;10.47;100.00
12195;BME280;27023;42.680;23.132;2022-11-11T03:55:28;93267.53;;;10.64;100.00
12195;BME280;27023;42.680;23.132;2022-11-11T03:57:55;93269.47;;;10.84;100.00
12195;BME280;27023;42.680;23.132;2022-11-11T04:00:24;93262.16;;;10.90;100.00
12195;BME280;27023;42.680;23.132;2022-11-11T04:03:00;93258.47;;;10.82;100.00
12195;BME280;27023;42.680;23.132;2022-11-11T04:05:46;93263.56;;;10.87;100.00
12195;BME280;27023;42.680;23.132;2022-11-11T04:08:30;93262.00;;;10.86;100.00
12195;BME280;27023;42.680;23.132;2022-11-11T04:11:17;93271.19;;;11.09;100.00
12195;BME280;27023;42.680;23.132;2022-11-11T04:13:46;93264.94;;;11.23;100.00
12195;BME280;27023;42.680;23.132;2022-11-11T04:16:31;93290.19;;;11.32;100.00
12195;BME280;27023;42.680;23.132;2022-11-11T04:18:57;93266.09;;;11.34;100.00
12195;BME280;27023;42.680;23.132;2022-11-11T04:21:43;93278.84;;;11.32;100.00
12195;BME280;27023;42.680;23.132;2022-11-11T04:24:11;93279.75;;;11.06;100.00
12195;BME280;27023;42.680;23.132;2022-11-11T04:26:58;93285.88;;;10.60;100.00
12195;BME280;27023;42.680;23.132;2022-11-11T04:29:25;93285.50;;;10.70;100.00
12195;BME280;27023;42.680;23.132;2022-11-11T04:31:54;93284.06;;;10.17;100.00
12195;BME280;27023;42.680;23.132;2022-11-11T04:34:38;93290.53;;;10.55;100.00
12195;BME280;27023;42.680;23.132;2022-11-11T04:37:07;93280.97;;;10.79;100.00
12195;BME280;27023;42.680;23.132;2022-11-11T04:39:34;93285.06;;;10.98;100.00
12195;BME280;27023;42.680;23.132;2022-11-11T04:42:18;93280.78;;;10.46;100.00
12195;BME280;27023;42.680;23.132;2022-11-11T04:44:44;93278.34;;;10.15;100.00
12195;BME280;27023;42.680;23.132;2022-11-11T04:47:29;93284.09;;;10.73;100.00
12195;BME280;27023;42.680;23.132;2022-11-11T04:49:56;93281.88;;;10.37;100.00
12195;BME280;27023;42.680;23.132;2022-11-11T04:52:24;93284.84;;;10.44;100.00
12195;BME280;27023;42.680;23.132;2022-11-11T04:54:54;93282.56;;;10.72;100.00
12195;BME280;27023;42.680;23.132;2022-11-11T04:57:40;93284.66;;;10.87;100.00
12195;BME280;27023;42.680;23.132;2022-11-11T05:00:09;93287.06;;;10.71;100.00
12195;BME280;27023;42.680;23.132;2022-11-11T05:02:37;93288.09;;;10.79;100.00
12195;BME280;27023;42.680;23.132;2022-11-11T05:05:21;93284.94;;;10.94;100.00
12195;BME280;27023;42.680;23.132;2022-11-11T05:07:50;93283.09;;;10.57;100.00
12195;BME280;27023;42.680;23.132;2022-11-11T05:10:34;93284.25;;;10.76;100.00
12195;BME280;27023;42.680;23.132;2022-11-11T05:13:01;93284.63;;;10.96;100.00
12195;BME280;27023;42.680;23.132;2022-11-11T05:15:46;93286.31;;;10.62;100.00
12195;BME280;27023;42.680;23.132;2022-11-11T05:18:30;93286.94;;;10.97;100.00
12195;BME280;27023;42.680;23.132;2022-11-11T05:21:16;93279.69;;;10.56;100.00
12195;BME280;27023;42.680;23.132;2022-11-11T05:23:48;93287.38;;;10.70;100.00
12195;BME280;27023;42.680;23.132;2022-11-11T05:26:32;93292.75;;;10.35;100.00
12195;BME280;27023;42.680;23.132;2022-11-11T05:28:59;93299.25;;;10.29;100.00
12195;BME280;27023;42.680;23.132;2022-11-11T05:31:26;93298.81;;;10.01;100.00
12195;BME280;27023;42.680;23.132;2022-11-11T05:33:53;93299.56;;;10.19;100.00
12195;BME280;27023;42.680;23.132;2022-11-11T05:36:20;93300.34;;;10.45;100.00
12195;BME280;27023;42.680;23.132;2022-11-11T05:38:48;93316.81;;;9.91;100.00
12195;BME280;27023;42.680;23.132;2022-11-11T05:41:14;93314.00;;;10.13;100.00
12195;BME280;27023;42.680;23.132;2022-11-11T05:43:41;93308.72;;;10.13;100.00
12195;BME280;27023;42.680;23.132;2022-11-11T05:46:08;93310.44;;;10.26;100.00
12195;BME280;27023;42.680;23.132;2022-11-11T05:48:34;93317.06;;;10.49;100.00
12195;BME280;27023;42.680;23.132;2022-11-11T05:51:21;93327.31;;;10.42;100.00
12195;BME280;27023;42.680;23.132;2022-11-11T05:53:54;93320.81;;;10.14;100.00
12195;BME280;27023;42.680;23.132;2022-11-11T05:56:21;93319.28;;;9.96;100.00
12195;BME280;27023;42.680;23.132;2022-11-11T05:58:48;93318.47;;;10.30;100.00
12195;BME280;27023;42.680;23.132;2022-11-11T06:01:14;93328.25;;;10.46;100.00
12195;BME280;27023;42.680;23.132;2022-11-11T06:03:41;93331.97;;;10.11;100.00
12195;BME280;27023;42.680;23.132;2022-11-11T06:06:08;93326.56;;;10.25;100.00
12195;BME280;27023;42.680;23.132;2022-11-11T06:08:34;93331.03;;;10.07;100.00
12195;BME280;27023;42.680;23.132;2022-11-11T06:11:02;93338.31;;;10.53;100.00
12195;BME280;27023;42.680;23.132;2022-11-11T06:13:29;93336.66;;;10.78;100.00
12195;BME280;27023;42.680;23.132;2022-11-11T06:15:56;93345.00;;;10.89;100.00
12195;BME280;27023;42.680;23.132;2022-11-11T06:18:23;93348.53;;;11.01;100.00
12195;BME280;27023;42.680;23.132;2022-11-11T06:20:52;93345.53;;;11.20;100.00
12195;BME280;27023;42.680;23.132;2022-11-11T06:23:18;93360.56;;;11.20;100.00
12195;BME280;27023;42.680;23.132;2022-11-11T06:25:45;93359.06;;;11.39;100.00
12195;BME280;27023;42.680;23.132;2022-11-11T06:28:31;93365.75;;;10.99;100.00
12195;BME280;27023;42.680;23.132;2022-11-11T06:30:57;93362.66;;;10.97;100.00
12195;BME280;27023;42.680;23.132;2022-11-11T06:33:24;93369.00;;;11.04;100.00
12195;BME280;27023;42.680;23.132;2022-11-11T06:35:51;93377.38;;;11.15;100.00
12195;BME280;27023;42.680;23.132;2022-11-11T06:38:18;93380.72;;;10.77;100.00
12195;BME280;27023;42.680;23.132;2022-11-11T06:40:45;93375.13;;;10.88;100.00
12195;BME280;27023;42.680;23.132;2022-11-11T06:43:12;93382.47;;;11.11;100.00
12195;BME280;27023;42.680;23.132;2022-11-11T06:45:40;93384.16;;;11.25;100.00
12195;BME280;27023;42.680;23.132;2022-11-11T06:48:07;93382.44;;;11.29;100.00
12195;BME280;27023;42.680;23.132;2022-11-11T06:50:34;93394.81;;;11.37;100.00
12195;BME280;27023;42.680;23.132;2022-11-11T06:53:04;93394.72;;;11.25;100.00
12195;BME280;27023;42.680;23.132;2022-11-11T06:55:31;93391.31;;;10.69;100.00
12195;BME280;27023;42.680;23.132;2022-11-11T06:58:04;93390.56;;;10.25;100.00
12195;BME280;27023;42.680;23.132;2022-11-11T07:00:30;93388.97;;;10.67;100.00
12195;BME280;27023;42.680;23.132;2022-11-11T07:02:59;93383.69;;;10.76;100.00
12195;BME280;27023;42.680;23.132;2022-11-11T07:05:25;93383.63;;;10.93;100.00
12195;BME280;27023;42.680;23.132;2022-11-11T07:07:52;93392.38;;;11.23;100.00
12195;BME280;27023;42.680;23.132;2022-11-11T07:10:19;93392.47;;;11.35;100.00
12195;BME280;27023;42.680;23.132;2022-11-11T07:12:46;93393.72;;;11.38;100.00
12195;BME280;27023;42.680;23.132;2022-11-11T07:15:12;93401.44;;;11.05;100.00
12195;BME280;27023;42.680;23.132;2022-11-11T07:17:40;93401.25;;;10.37;100.00
12195;BME280;27023;42.680;23.132;2022-11-11T07:20:09;93398.00;;;10.23;100.00
12195;BME280;27023;42.680;23.132;2022-11-11T07:22:36;93404.84;;;10.41;100.00
12195;BME280;27023;42.680;23.132;2022-11-11T07:25:03;93412.22;;;10.74;100.00
12195;BME280;27023;42.680;23.132;2022-11-11T07:27:30;93408.00;;;10.90;100.00
12195;BME280;27023;42.680;23.132;2022-11-11T07:29:57;93406.63;;;10.84;100.00
12195;BME280;27023;42.680;23.132;2022-11-11T07:32:24;93410.06;;;10.76;100.00
12195;BME280;27023;42.680;23.132;2022-11-11T07:34:50;93414.41;;;10.72;100.00
12195;BME280;27023;42.680;23.132;2022-11-11T07:37:19;93413.81;;;10.23;100.00
12195;BME280;27023;42.680;23.132;2022-11-11T07:39:46;93422.38;;;10.46;100.00
12195;BME280;27023;42.680;23.132;2022-11-11T07:42:12;93417.34;;;9.84;100.00
12195;BME280;27023;42.680;23.132;2022-11-11T07:44:40;93423.00;;;9.60;100.00
12195;BME280;27023;42.680;23.132;2022-11-11T07:47:06;93417.19;;;9.80;100.00
12195;BME280;27023;42.680;23.132;2022-11-11T07:49:33;93421.50;;;9.76;100.00
12195;BME280;27023;42.680;23.132;2022-11-11T07:52:00;93424.63;;;9.78;100.00
12195;BME280;27023;42.680;23.132;2022-11-11T07:54:28;93426.03;;;10.19;100.00
12195;BME280;27023;42.680;23.132;2022-11-11T07:56:55;93432.44;;;10.44;100.00
12195;BME280;27023;42.680;23.132;2022-11-11T07:59:22;93439.41;;;10.57;100.00
12195;BME280;27023;42.680;23.132;2022-11-11T08:01:49;93445.75;;;10.56;100.00
12195;BME280;27023;42.680;23.132;2022-11-11T08:04:15;93446.34;;;10.10;100.00
12195;BME280;27023;42.680;23.132;2022-11-11T08:06:42;93436.31;;;10.46;100.00
12195;BME280;27023;42.680;23.132;2022-11-11T08:09:08;93440.78;;;10.20;100.00
12195;BME280;27023;42.680;23.132;2022-11-11T08:11:37;93431.81;;;10.21;100.00
12195;BME280;27023;42.680;23.132;2022-11-11T08:14:21;93416.16;;;10.42;100.00
12195;BME280;27023;42.680;23.132;2022-11-11T08:16:47;93446.06;;;10.72;100.00
12195;BME280;27023;42.680;23.132;2022-11-11T08:19:14;93454.13;;;10.75;100.00
12195;BME280;27023;42.680;23.132;2022-11-11T08:21:41;93448.81;;;10.84;100.00
12195;BME280;27023;42.680;23.132;2022-11-11T08:24:07;93450.53;;;10.80;100.00
12195;BME280;27023;42.680;23.132;2022-11-11T08:26:36;93450.41;;;10.68;100.00
12195;BME280;27023;42.680;23.132;2022-11-11T08:29:03;93451.16;;;10.77;100.00
12195;BME280;27023;42.680;23.132;2022-11-11T08:31:29;93444.97;;;10.38;100.00
12195;BME280;27023;42.680;23.132;2022-11-11T08:33:56;93460.94;;;10.68;100.00
12195;BME280;27023;42.680;23.132;2022-11-11T08:36:23;93452.41;;;10.79;100.00
12195;BME280;27023;42.680;23.132;2022-11-11T08:38:50;93448.53;;;10.25;100.00
12195;BME280;27023;42.680;23.132;2022-11-11T08:41:17;93455.06;;;10.71;100.00
12195;BME280;27023;42.680;23.132;2022-11-11T08:43:50;93459.53;;;10.88;100.00
12195;BME280;27023;42.680;23.132;2022-11-11T08:46:20;93456.13;;;10.87;100.00
12195;BME280;27023;42.680;23.132;2022-11-11T08:48:47;93461.09;;;10.80;100.00
12195;BME280;27023;42.680;23.132;2022-11-11T08:51:14;93456.59;;;10.72;100.00
12195;BME280;27023;42.680;23.132;2022-11-11T08:53:41;93470.03;;;11.05;100.00
12195;BME280;27023;42.680;23.132;2022-11-11T08:56:08;93462.25;;;11.26;100.00
12195;BME280;27023;42.680;23.132;2022-11-11T08:58:36;93459.63;;;11.08;100.00
12195;BME280;27023;42.680;23.132;2022-11-11T09:01:09;93448.63;;;11.15;100.00
12195;BME280;27023;42.680;23.132;2022-11-11T09:03:39;93459.41;;;10.67;100.00
12195;BME280;27023;42.680;23.132;2022-11-11T09:06:11;93456.38;;;11.03;100.00
12195;BME280;27023;42.680;23.132;2022-11-11T09:08:40;93450.38;;;11.40;100.00
12195;BME280;27023;42.680;23.132;2022-11-11T09:11:07;93453.63;;;11.46;100.00
12195;BME280;27023;42.680;23.132;2022-11-11T09:13:34;93451.22;;;11.24;100.00
12195;BME280;27023;42.680;23.132;2022-11-11T09:16:01;93457.63;;;11.05;100.00
12195;BME280;27023;42.680;23.132;2022-11-11T09:18:29;93457.75;;;11.18;100.00
12195;BME280;27023;42.680;23.132;2022-11-11T09:20:57;93460.81;;;10.64;100.00
12195;BME280;27023;42.680;23.132;2022-11-11T09:23:24;93460.09;;;11.19;100.00
12195;BME280;27023;42.680;23.132;2022-11-11T09:25:51;93459.78;;;11.12;100.00
12195;BME280;27023;42.680;23.132;2022-11-11T09:28:18;93450.22;;;10.90;100.00
12195;BME280;27023;42.680;23.132;2022-11-11T09:30:45;93461.09;;;10.71;100.00
12195;BME280;27023;42.680;23.132;2022-11-11T09:33:11;93455.38;;;10.61;100.00
12195;BME280;27023;42.680;23.132;2022-11-11T09:35:41;93463.03;;;11.18;100.00
12195;BME280;27023;42.680;23.132;2022-11-11T09:38:08;93449.31;;;11.33;100.00
12195;BME280;27023;42.680;23.132;2022-11-11T09:40:47;93449.50;;;11.28;100.00
12195;BME280;27023;42.680;23.132;2022-11-11T09:43:23;93450.56;;;11.35;100.00
12195;BME280;27023;42.680;23.132;2022-11-11T09:46:04;93449.38;;;11.16;100.00
12195;BME280;27023;42.680;23.132;2022-11-11T09:48:52;93443.88;;;11.38;100.00
12195;BME280;27023;42.680;23.132;2022-11-11T09:51:29;93448.63;;;11.06;100.00
12195;BME280;27023;42.680;23.132;2022-11-11T09:54:02;93446.81;;;10.81;100.00
12195;BME280;27023;42.680;23.132;2022-11-11T09:56:32;93436.44;;;10.76;100.00
12195;BME280;27023;42.680;23.132;2022-11-11T09:59:04;93441.75;;;11.23;100.00
12195;BME280;27023;42.680;23.132;2022-11-11T10:01:36;93437.03;;;10.90;100.00
12195;BME280;27023;42.680;23.132;2022-11-11T10:04:15;93433.84;;;11.23;100.00
12195;BME280;27023;42.680;23.132;2022-11-11T10:06:46;93434.75;;;10.63;100.00
12195;BME280;27023;42.680;23.132;2022-11-11T10:09:19;93429.81;;;11.17;100.00
12195;BME280;27023;42.680;23.132;2022-11-11T10:11:53;93437.06;;;10.64;100.00
12195;BME280;27023;42.680;23.132;2022-11-11T10:14:28;93434.47;;;11.20;100.00
12195;BME280;27023;42.680;23.132;2022-11-11T10:17:02;93439.41;;;11.30;100.00
12195;BME280;27023;42.680;23.132;2022-11-11T10:19:36;93433.22;;;11.55;100.00
12195;BME280;27023;42.680;23.132;2022-11-11T10:22:19;93440.59;;;11.70;100.00
12195;BME280;27023;42.680;23.132;2022-11-11T10:24:51;93431.13;;;10.93;100.00
12195;BME280;27023;42.680;23.132;2022-11-11T10:27:28;93433.63;;;11.36;100.00
12195;BME280;27023;42.680;23.132;2022-11-11T10:29:55;93441.28;;;11.59;100.00
12195;BME280;27023;42.680;23.132;2022-11-11T10:32:25;93431.81;;;11.28;100.00
12195;BME280;27023;42.680;23.132;2022-11-11T10:34:53;93431.41;;;11.47;100.00
12195;BME280;27023;42.680;23.132;2022-11-11T10:37:38;93423.97;;;11.40;100.00
12195;BME280;27023;42.680;23.132;2022-11-11T10:40:12;93415.66;;;11.59;100.00
12195;BME280;27023;42.680;23.132;2022-11-11T10:42:42;93422.22;;;11.83;100.00
12195;BME280;27023;42.680;23.132;2022-11-11T10:45:13;93417.69;;;11.92;100.00
12195;BME280;27023;42.680;23.132;2022-11-11T10:47:52;93416.38;;;11.39;100.00
12195;BME280;27023;42.680;23.132;2022-11-11T10:50:25;93415.09;;;11.45;100.00
12195;BME280;27023;42.680;23.132;2022-11-11T10:52:59;93410.78;;;11.40;100.00
12195;BME280;27023;42.680;23.132;2022-11-11T10:55:31;93420.03;;;11.17;100.00
12195;BME280;27023;42.680;23.132;2022-11-11T10:58:06;93414.13;;;11.11;100.00
12195;BME280;27023;42.680;23.132;2022-11-11T11:00:36;93411.59;;;11.32;100.00
12195;BME280;27023;42.680;23.132;2022-11-11T11:03:12;93408.72;;;11.46;100.00
12195;BME280;27023;42.680;23.132;2022-11-11T11:05:44;93407.66;;;11.47;100.00
12195;BME280;27023;42.680;23.132;2022-11-11T11:08:16;93410.75;;;11.49;100.00
12195;BME280;27023;42.680;23.132;2022-11-11T11:10:47;93402.19;;;11.82;100.00
12195;BME280;27023;42.680;23.132;2022-11-11T11:13:17;93398.50;;;12.03;100.00
12195;BME280;27023;42.680;23.132;2022-11-11T11:15:54;93409.44;;;12.35;99.00
12195;BME280;27023;42.680;23.132;2022-11-11T11:18:22;93398.34;;;12.21;97.91
12195;BME280;27023;42.680;23.132;2022-11-11T11:20:55;93394.91;;;11.78;99.41
12195;BME280;27023;42.680;23.132;2022-11-11T11:23:37;93401.09;;;11.53;99.88
12195;BME280;27023;42.680;23.132;2022-11-11T11:26:05;93392.41;;;11.82;99.49
12195;BME280;27023;42.680;23.132;2022-11-11T11:28:32;93391.97;;;12.01;96.49
12195;BME280;27023;42.680;23.132;2022-11-11T11:31:02;93393.31;;;12.28;95.05
12195;BME280;27023;42.680;23.132;2022-11-11T11:33:50;93394.16;;;12.40;91.99
12195;BME280;27023;42.680;23.132;2022-11-11T11:36:18;93399.59;;;12.77;90.47
12195;BME280;27023;42.680;23.132;2022-11-11T11:38:48;93382.56;;;12.66;91.22
12195;BME280;27023;42.680;23.132;2022-11-11T11:41:16;93383.97;;;11.59;94.17
12195;BME280;27023;42.680;23.132;2022-11-11T11:43:44;93384.50;;;12.24;93.50
12195;BME280;27023;42.680;23.132;2022-11-11T11:46:17;93377.03;;;12.59;90.74
12195;BME280;27023;42.680;23.132;2022-11-11T11:48:55;93375.47;;;13.03;89.29
12195;BME280;27023;42.680;23.132;2022-11-11T11:51:32;93369.22;;;12.29;91.20
12195;BME280;27023;42.680;23.132;2022-11-11T11:54:12;93380.91;;;13.07;87.37
12195;BME280;27023;42.680;23.132;2022-11-11T11:56:44;93383.97;;;12.96;87.41
12195;BME280;27023;42.680;23.132;2022-11-11T11:59:15;93378.53;;;12.81;86.15
12195;BME280;27023;42.680;23.132;2022-11-11T12:01:50;93379.16;;;11.91;91.08
12195;BME280;27023;42.680;23.132;2022-11-11T12:04:57;93385.81;;;12.51;88.97
12195;BME280;27023;42.680;23.132;2022-11-11T12:07:40;93377.66;;;12.56;88.10
12195;BME280;27023;42.680;23.132;2022-11-11T12:10:23;93385.91;;;12.75;87.51
12195;BME280;27023;42.680;23.132;2022-11-11T12:12:55;93380.84;;;12.82;86.34
12195;BME280;27023;42.680;23.132;2022-11-11T12:15:30;93385.69;;;12.80;87.56
12195;BME280;27023;42.680;23.132;2022-11-11T12:18:20;93374.44;;;12.71;86.89
12195;BME280;27023;42.680;23.132;2022-11-11T12:20:55;93376.25;;;12.58;89.41
12195;BME280;27023;42.680;23.132;2022-11-11T12:26:27;93363.00;;;12.46;87.67
12195;BME280;27023;42.680;23.132;2022-11-11T12:29:09;93355.13;;;12.37;88.56
12195;BME280;27023;42.680;23.132;2022-11-11T12:31:46;93362.53;;;12.44;88.38
12195;BME280;27023;42.680;23.132;2022-11-11T12:34:30;93357.03;;;12.49;88.06
12195;BME280;27023;42.680;23.132;2022-11-11T12:37:09;93359.53;;;12.33;89.74
12195;BME280;27023;42.680;23.132;2022-11-11T12:39:52;93360.00;;;12.48;88.64
12195;BME280;27023;42.680;23.132;2022-11-11T12:42:41;93362.31;;;12.16;89.73
12195;BME280;27023;42.680;23.132;2022-11-11T12:45:16;93359.31;;;12.05;89.96
12195;BME280;27023;42.680;23.132;2022-11-11T12:47:50;93369.25;;;12.41;88.87
12195;BME280;27023;42.680;23.132;2022-11-11T12:50:21;93363.75;;;12.47;87.12
12195;BME280;27023;42.680;23.132;2022-11-11T12:53:03;93368.00;;;12.60;87.90
12195;BME280;27023;42.680;23.132;2022-11-11T12:55:39;93372.19;;;12.28;88.00
12195;BME280;27023;42.680;23.132;2022-11-11T12:58:18;93361.66;;;12.40;86.38
12195;BME280;27023;42.680;23.132;2022-11-11T13:00:57;93370.75;;;12.30;87.93
12195;BME280;27023;42.680;23.132;2022-11-11T13:03:50;93360.47;;;12.50;87.04
12195;BME280;27023;42.680;23.132;2022-11-11T13:06:28;93370.59;;;12.48;87.14